createdAt,value
2019-03-25T00:01:34.636Z,75.00
2019-03-25T00:04:02.836Z,75.40
2019-03-25T00:06:30.832Z,75.90
2019-03-25T00:09:05.317Z,76.10
2019-03-25T00:11:28.599Z,76.60
2019-03-25T00:13:56.675Z,76.50
2019-03-25T00:16:24.647Z,76.70
2019-03-25T00:18:52.615Z,77.00
2019-03-25T00:21:20.694Z,76.90
2019-03-25T00:23:48.784Z,77.30
2019-03-25T00:26:16.772Z,77.40
2019-03-25T00:28:44.752Z,77.40
2019-03-25T00:31:12.752Z,77.60
2019-03-25T00:33:40.742Z,77.60
2019-03-25T00:36:08.725Z,77.70
2019-03-25T00:38:36.712Z,77.90
2019-03-25T00:41:04.835Z,77.80
2019-03-25T00:43:32.816Z,78.30
2019-03-25T00:46:00.784Z,78.50
2019-03-25T00:48:28.776Z,78.50
2019-03-25T00:50:56.769Z,78.70
2019-03-25T00:53:24.833Z,78.90
2019-03-25T00:55:52.829Z,79.20
2019-03-25T00:58:20.801Z,79.10
2019-03-25T01:00:48.885Z,79.60
2019-03-25T01:03:16.909Z,79.80
2019-03-25T01:05:44.885Z,80.10
2019-03-25T01:08:12.950Z,80.80
2019-03-25T01:10:40.977Z,80.80
2019-03-25T01:13:08.947Z,81.10
2019-03-25T01:15:37.024Z,81.20
2019-03-25T01:18:16.133Z,81.70
2019-03-25T01:20:34.996Z,81.80
2019-03-25T01:23:02.961Z,81.90
2019-03-25T01:25:30.948Z,82.30
2019-03-25T01:27:58.919Z,82.60
2019-03-25T01:30:26.976Z,82.60
2019-03-25T01:32:54.979Z,83.10
2019-03-25T01:35:22.955Z,82.90
2019-03-25T01:37:50.940Z,83.40
2019-03-25T01:40:19.089Z,83.40
2019-03-25T01:42:47.084Z,83.50
2019-03-25T01:45:15.080Z,83.80
2019-03-25T01:47:43.146Z,83.90
2019-03-25T01:50:11.309Z,84.30
2019-03-25T01:52:39.296Z,84.40
2019-03-25T01:55:13.511Z,84.40
2019-03-25T01:57:37.294Z,85.00
2019-03-25T02:00:06.718Z,85.00
2019-03-25T02:02:34.820Z,85.10
2019-03-25T02:05:02.884Z,85.40
2019-03-25T02:07:30.875Z,85.20
2019-03-25T02:09:58.985Z,85.40
2019-03-25T02:12:27.065Z,85.40
2019-03-25T02:14:54.924Z,85.60
2019-03-25T02:17:22.937Z,85.80
2019-03-25T02:19:50.923Z,85.70
2019-03-25T02:22:19.429Z,85.80
2019-03-25T02:24:47.588Z,86.20
2019-03-25T02:27:15.441Z,86.20
2019-03-25T02:29:43.520Z,86.60
2019-03-25T02:32:11.613Z,86.60
2019-03-25T02:34:39.594Z,86.80
2019-03-25T02:37:07.581Z,86.80
2019-03-25T02:39:35.576Z,86.70
2019-03-25T02:42:03.657Z,86.90
2019-03-25T02:44:31.730Z,87.10
2019-03-25T02:46:59.830Z,87.20
2019-03-25T02:49:27.802Z,87.30
2019-03-25T02:51:55.795Z,87.20
2019-03-25T02:54:23.806Z,87.40
2019-03-25T02:56:51.778Z,87.40
2019-03-25T02:59:19.898Z,87.80
2019-03-25T03:01:47.971Z,87.80
2019-03-25T03:04:15.959Z,87.90
2019-03-25T03:06:43.949Z,87.70
2019-03-25T03:09:12.045Z,88.00
2019-03-25T03:11:40.022Z,88.00
2019-03-25T03:14:08.125Z,88.10
2019-03-25T03:16:36.192Z,88.20
2019-03-25T03:19:04.292Z,88.20
2019-03-25T03:21:32.270Z,88.40
2019-03-25T03:24:00.230Z,89.20
2019-03-25T03:26:28.198Z,88.60
2019-03-25T03:28:56.219Z,88.50
2019-03-25T03:31:24.181Z,88.20
2019-03-25T03:33:52.265Z,88.20
2019-03-25T03:36:20.312Z,87.90
2019-03-25T03:38:48.498Z,87.70
2019-03-25T03:41:16.590Z,87.80
2019-03-25T03:43:44.668Z,87.90
2019-03-25T03:46:12.714Z,87.70
2019-03-25T03:48:40.797Z,87.50
2019-03-25T03:51:08.683Z,87.60
2019-03-25T03:53:36.658Z,87.60
2019-03-25T03:56:12.951Z,87.90
2019-03-25T03:58:34.623Z,87.90
2019-03-25T04:01:02.712Z,87.80
2019-03-25T04:03:30.776Z,87.70
2019-03-25T04:05:58.883Z,88.60
2019-03-25T04:08:26.848Z,87.90
2019-03-25T04:10:54.819Z,88.00
2019-03-25T04:13:22.816Z,88.00
2019-03-25T04:15:50.801Z,87.70
2019-03-25T04:18:18.769Z,87.60
2019-03-25T04:20:46.756Z,87.50
2019-03-25T04:23:14.725Z,87.40
2019-03-25T04:25:42.819Z,87.10
2019-03-25T04:28:10.692Z,86.90
2019-03-25T04:30:38.658Z,87.00
2019-03-25T04:33:06.646Z,86.80
2019-03-25T04:35:34.620Z,87.00
2019-03-25T04:38:02.614Z,87.10
2019-03-25T04:40:30.741Z,86.90
2019-03-25T04:42:59.017Z,86.90
2019-03-25T04:45:26.988Z,87.00
2019-03-25T04:47:54.964Z,87.00
2019-03-25T04:50:23.036Z,87.10
2019-03-25T04:52:51.030Z,86.90
2019-03-25T04:55:19.616Z,87.10
2019-03-25T04:57:47.692Z,86.90
2019-03-25T05:00:21.583Z,86.30
2019-03-25T05:02:49.600Z,85.70
2019-03-25T05:05:17.632Z,85.90
2019-03-25T05:07:45.641Z,85.80
2019-03-25T05:10:13.768Z,87.00
2019-03-25T05:12:41.893Z,87.10
2019-03-25T05:15:09.966Z,88.00
2019-03-25T05:17:37.964Z,86.90
2019-03-25T05:20:06.045Z,87.90
2019-03-25T05:22:34.013Z,88.70
2019-03-25T05:25:01.997Z,90.30
2019-03-25T05:27:30.107Z,91.10
2019-03-25T05:29:58.100Z,90.80
2019-03-25T05:32:26.092Z,91.70
2019-03-25T05:34:54.202Z,92.20
2019-03-25T05:37:22.288Z,92.50
2019-03-25T05:39:50.320Z,93.00
2019-03-25T05:42:18.374Z,92.60
2019-03-25T05:44:46.361Z,92.90
2019-03-25T05:47:14.441Z,92.80
2019-03-25T05:49:42.565Z,92.40
2019-03-25T05:52:10.526Z,92.30
2019-03-25T05:54:38.507Z,92.70
2019-03-25T05:57:06.502Z,92.90
2019-03-25T05:59:34.485Z,92.70
2019-03-25T06:02:02.632Z,93.20
2019-03-25T06:04:30.621Z,92.90
2019-03-25T06:06:58.704Z,93.10
2019-03-25T06:09:26.709Z,93.20
2019-03-25T06:11:54.673Z,92.90
2019-03-25T06:14:22.785Z,93.00
2019-03-25T06:16:50.783Z,92.50
2019-03-25T06:19:18.808Z,92.40
2019-03-25T06:21:46.793Z,92.10
2019-03-25T06:24:14.924Z,91.30
2019-03-25T06:26:42.933Z,91.00
2019-03-25T06:29:10.916Z,91.00
2019-03-25T06:31:38.884Z,91.20
2019-03-25T06:34:06.976Z,90.20
2019-03-25T06:36:34.949Z,89.20
2019-03-25T06:39:04.345Z,88.40
2019-03-25T06:41:32.320Z,88.70
2019-03-25T06:44:00.410Z,89.00
2019-03-25T06:46:28.388Z,88.80
2019-03-25T06:48:56.480Z,88.50
2019-03-25T06:51:24.428Z,89.80
2019-03-25T06:53:52.376Z,86.20
2019-03-25T06:56:20.343Z,86.60
2019-03-25T06:58:48.322Z,87.40
2019-03-25T07:01:16.283Z,86.00
2019-03-25T07:03:44.354Z,86.80
2019-03-25T07:06:12.455Z,86.30
2019-03-25T07:08:40.278Z,86.00
2019-03-25T07:11:08.462Z,85.80
2019-03-25T07:13:36.460Z,84.70
2019-03-25T07:16:04.431Z,85.00
2019-03-25T07:18:32.400Z,84.10
2019-03-25T07:21:00.425Z,83.60
2019-03-25T07:23:28.503Z,83.70
2019-03-25T07:25:56.581Z,83.70
2019-03-25T07:28:24.699Z,84.80
2019-03-25T07:30:52.657Z,83.20
2019-03-25T07:33:20.745Z,83.40
2019-03-25T07:35:48.640Z,82.40
2019-03-25T07:38:16.638Z,82.30
2019-03-25T07:40:44.602Z,81.70
2019-03-25T07:43:12.716Z,81.60
2019-03-25T07:45:40.702Z,82.10
2019-03-25T07:48:08.677Z,82.80
2019-03-25T07:50:36.661Z,82.80
2019-03-25T07:53:04.809Z,81.60
2019-03-25T07:55:32.888Z,82.30
2019-03-25T07:58:00.885Z,81.30
2019-03-25T08:00:28.864Z,81.90
2019-03-25T08:02:56.809Z,80.90
2019-03-25T08:05:24.802Z,81.40
2019-03-25T08:07:52.846Z,78.00
2019-03-25T08:10:31.226Z,79.60
2019-03-25T08:12:59.265Z,78.40
2019-03-25T08:15:27.327Z,79.80
2019-03-25T08:17:55.403Z,77.60
2019-03-25T08:20:23.382Z,77.50
2019-03-25T08:22:51.371Z,76.40
2019-03-25T08:25:19.364Z,77.80
2019-03-25T08:27:59.123Z,77.30
2019-03-25T08:30:17.744Z,76.50
2019-03-25T08:32:45.768Z,75.60
2019-03-25T08:35:13.737Z,73.50
2019-03-25T08:37:41.828Z,71.10
2019-03-25T08:40:09.933Z,71.70
2019-03-25T08:42:37.897Z,70.20
2019-03-25T08:45:06.536Z,70.10
2019-03-25T08:47:34.533Z,70.90
2019-03-25T08:50:02.524Z,70.30
2019-03-25T08:52:30.484Z,71.20
2019-03-25T08:54:58.507Z,69.60
2019-03-25T08:57:26.583Z,69.60
2019-03-25T08:59:56.506Z,73.30
2019-03-25T09:02:24.510Z,80.90
2019-03-25T09:04:52.562Z,85.40
2019-03-25T09:07:20.534Z,87.60
2019-03-25T09:09:48.540Z,88.50
2019-03-25T09:12:16.684Z,88.10
2019-03-25T09:14:44.800Z,88.40
2019-03-25T09:17:12.784Z,89.50
2019-03-25T09:19:40.769Z,86.70
2019-03-25T09:22:09.077Z,86.10
2019-03-25T09:24:37.060Z,86.30
2019-03-25T09:27:05.033Z,85.60
2019-03-25T09:29:33.132Z,83.40
2019-03-25T09:32:01.906Z,84.00
2019-03-25T09:34:29.884Z,85.30
2019-03-25T09:36:58.289Z,83.60
2019-03-25T09:39:26.275Z,83.70
2019-03-25T09:41:54.511Z,84.70
2019-03-25T09:44:23.214Z,80.70
2019-03-25T09:46:51.297Z,80.50
2019-03-25T09:49:19.297Z,78.60
2019-03-25T09:51:47.285Z,77.90
2019-03-25T09:54:15.241Z,78.00
2019-03-25T09:56:43.217Z,79.50
2019-03-25T09:59:11.215Z,77.40
2019-03-25T10:01:39.186Z,75.40
2019-03-25T10:04:07.355Z,76.30
2019-03-25T10:06:35.472Z,72.20
2019-03-25T10:09:08.181Z,71.40
2019-03-25T10:11:36.142Z,69.20
2019-03-25T10:14:04.248Z,70.10
2019-03-25T10:16:32.217Z,70.50
2019-03-25T10:19:00.188Z,72.80
2019-03-25T10:21:28.190Z,69.00
2019-03-25T10:23:56.261Z,69.30
2019-03-25T10:26:24.241Z,68.90
2019-03-25T10:28:52.241Z,67.20
2019-03-25T10:31:20.364Z,67.50
2019-03-25T10:33:48.428Z,68.20
2019-03-25T10:36:16.422Z,68.70
2019-03-25T10:38:44.391Z,68.40
2019-03-25T10:41:12.476Z,69.20
2019-03-25T10:43:40.519Z,67.20
2019-03-25T10:46:08.501Z,64.60
2019-03-25T10:48:36.493Z,64.20
2019-03-25T10:51:04.588Z,64.60
2019-03-25T10:53:32.556Z,63.40
2019-03-25T10:56:00.568Z,64.10
2019-03-25T10:58:28.525Z,63.40
2019-03-25T11:00:56.611Z,62.70
2019-03-25T11:03:24.619Z,64.70
2019-03-25T11:05:52.630Z,67.60
2019-03-25T11:08:20.703Z,70.70
2019-03-25T11:10:48.740Z,72.80
2019-03-25T11:13:16.823Z,72.60
2019-03-25T11:15:44.813Z,73.60
2019-03-25T11:18:12.908Z,71.50
2019-03-25T11:20:40.879Z,71.90
2019-03-25T11:23:08.869Z,81.50
2019-03-25T11:25:36.888Z,85.20
2019-03-25T11:28:22.493Z,87.00
2019-03-25T11:31:00.169Z,90.50
2019-03-25T11:33:28.340Z,91.20
2019-03-25T11:35:56.427Z,91.20
2019-03-25T11:38:24.649Z,91.80
2019-03-25T11:40:52.676Z,91.60
2019-03-25T11:43:20.714Z,90.40
2019-03-25T11:45:48.868Z,88.60
2019-03-25T11:48:17.124Z,80.50
2019-03-25T11:50:45.813Z,79.70
2019-03-25T11:53:13.800Z,79.20
2019-03-25T11:55:41.868Z,76.40
2019-03-25T11:58:09.951Z,74.70
2019-03-25T12:00:37.932Z,74.10
2019-03-25T12:03:05.945Z,71.50
2019-03-25T12:05:33.922Z,70.20
2019-03-25T12:08:01.916Z,68.60
2019-03-25T12:10:29.906Z,68.40
2019-03-25T12:12:57.878Z,69.40
2019-03-25T12:15:25.841Z,67.30
2019-03-25T12:17:53.939Z,66.60
2019-03-25T12:20:21.904Z,67.60
2019-03-25T12:22:49.917Z,70.50
2019-03-25T12:25:17.925Z,69.70
2019-03-25T12:27:45.892Z,67.90
2019-03-25T12:30:13.964Z,67.40
2019-03-25T12:32:41.866Z,65.20
2019-03-25T12:35:09.856Z,66.00
2019-03-25T12:37:37.831Z,66.20
2019-03-25T12:40:07.884Z,66.90
2019-03-25T12:42:35.669Z,65.60
2019-03-25T12:45:03.694Z,68.10
2019-03-25T12:47:31.705Z,73.60
2019-03-25T12:49:59.761Z,74.50
2019-03-25T12:52:27.740Z,75.50
2019-03-25T12:54:55.939Z,77.00
2019-03-25T12:57:24.012Z,76.30
2019-03-25T12:59:52.033Z,76.30
2019-03-25T13:02:19.999Z,75.40
2019-03-25T13:04:48.036Z,73.90
2019-03-25T13:07:16.032Z,71.00
2019-03-25T13:09:44.009Z,71.10
2019-03-25T13:12:11.987Z,70.50
2019-03-25T13:14:39.992Z,68.50
2019-03-25T13:17:07.955Z,68.80
2019-03-25T13:19:36.036Z,67.50
2019-03-25T13:22:04.116Z,66.50
2019-03-25T13:24:32.083Z,66.70
2019-03-25T13:27:00.133Z,65.10
2019-03-25T13:29:28.084Z,65.90
2019-03-25T13:31:56.147Z,66.50
2019-03-25T13:34:24.141Z,66.10
2019-03-25T13:36:52.112Z,66.50
2019-03-25T13:39:20.223Z,65.90
2019-03-25T13:41:48.196Z,65.70
2019-03-25T13:44:16.173Z,68.10
2019-03-25T13:46:44.073Z,67.20
2019-03-25T13:49:12.136Z,66.80
2019-03-25T13:51:40.107Z,67.80
2019-03-25T13:54:08.188Z,67.30
2019-03-25T13:56:36.249Z,66.90
2019-03-25T13:59:04.336Z,68.30
2019-03-25T14:01:32.373Z,76.70
2019-03-25T14:04:00.296Z,77.50
2019-03-25T14:06:28.296Z,77.10
2019-03-25T14:08:56.287Z,77.60
2019-03-25T14:11:24.271Z,79.90
2019-03-25T14:13:52.256Z,78.20
2019-03-25T14:16:20.297Z,77.40
2019-03-25T14:18:48.292Z,77.00
2019-03-25T14:21:16.400Z,77.00
2019-03-25T14:23:44.396Z,76.50
2019-03-25T14:26:12.364Z,77.90
2019-03-25T14:28:40.352Z,77.50
2019-03-25T14:31:08.345Z,74.10
2019-03-25T14:33:36.362Z,72.10
2019-03-25T14:36:04.338Z,72.90
2019-03-25T14:38:32.333Z,73.00
2019-03-25T14:41:00.305Z,72.50
2019-03-25T14:43:28.387Z,71.40
2019-03-25T14:45:56.400Z,71.00
2019-03-25T14:48:24.376Z,70.80
2019-03-25T14:50:52.360Z,70.60
2019-03-25T14:53:20.373Z,70.50
2019-03-25T14:55:48.428Z,70.70
2019-03-25T14:58:16.566Z,70.60
2019-03-25T15:00:44.504Z,69.80
2019-03-25T15:03:12.528Z,69.80
2019-03-25T15:05:40.546Z,69.30
2019-03-25T15:08:08.553Z,67.90
2019-03-25T15:10:36.624Z,68.40
2019-03-25T15:13:04.722Z,69.60
2019-03-25T15:15:32.811Z,69.60
2019-03-25T15:18:00.870Z,71.40
2019-03-25T15:20:28.857Z,71.80
2019-03-25T15:22:56.839Z,72.00
2019-03-25T15:25:24.998Z,72.50
2019-03-25T15:27:52.980Z,71.50
2019-03-25T15:30:20.950Z,71.30
2019-03-25T15:32:48.956Z,70.40
2019-03-25T15:35:16.936Z,70.10
2019-03-25T15:37:45.024Z,69.90
2019-03-25T15:40:13.362Z,70.00
2019-03-25T15:42:41.222Z,70.20
2019-03-25T15:45:09.447Z,71.40
2019-03-25T15:47:37.671Z,71.30
2019-03-25T15:50:06.668Z,71.60
2019-03-25T15:52:34.657Z,71.80
2019-03-25T15:55:02.636Z,71.70
2019-03-25T15:57:30.836Z,72.10
2019-03-25T15:59:59.071Z,72.30
2019-03-25T16:02:27.040Z,73.00
2019-03-25T16:04:55.129Z,72.20
2019-03-25T16:07:23.113Z,71.00
2019-03-25T16:09:51.180Z,70.20
2019-03-25T16:12:19.236Z,69.70
2019-03-25T16:14:47.475Z,69.40
2019-03-25T16:17:15.455Z,71.10
2019-03-25T16:19:43.449Z,70.80
2019-03-25T16:22:11.540Z,70.00
2019-03-25T16:24:39.624Z,71.60
2019-03-25T16:27:07.597Z,71.60
2019-03-25T16:29:35.573Z,71.50
2019-03-25T16:32:03.564Z,71.80
2019-03-25T16:34:31.547Z,71.10
2019-03-25T16:36:59.549Z,72.00
2019-03-25T16:39:27.796Z,72.20
2019-03-25T16:41:55.796Z,72.50
2019-03-25T16:44:23.946Z,73.10
2019-03-25T16:46:51.916Z,72.90
2019-03-25T16:49:19.950Z,73.00
2019-03-25T16:51:47.946Z,72.80
2019-03-25T16:54:15.738Z,72.70
2019-03-25T16:56:43.728Z,72.90
2019-03-25T16:59:11.711Z,73.00
2019-03-25T17:01:39.660Z,72.70
2019-03-25T17:04:07.607Z,72.60
2019-03-25T17:06:35.591Z,73.80
2019-03-25T17:09:04.980Z,73.50
2019-03-25T17:11:32.851Z,74.10
2019-03-25T17:14:00.815Z,73.60
2019-03-25T17:16:28.761Z,73.80
2019-03-25T17:18:56.627Z,73.80
2019-03-25T17:21:24.617Z,74.90
2019-03-25T17:23:52.715Z,75.30
2019-03-25T17:26:20.764Z,75.20
2019-03-25T17:28:48.744Z,75.40
2019-03-25T17:31:20.998Z,75.40
2019-03-25T17:33:46.249Z,75.40
2019-03-25T17:36:14.076Z,75.50
2019-03-25T17:38:42.017Z,75.40
2019-03-25T17:41:09.973Z,76.10
2019-03-25T17:43:37.947Z,76.30
2019-03-25T17:46:05.957Z,76.80
2019-03-25T17:48:34.132Z,77.00
2019-03-25T17:51:02.285Z,77.40
2019-03-25T17:53:30.288Z,77.20
2019-03-25T17:55:58.355Z,77.00
2019-03-25T17:58:26.361Z,77.40
2019-03-25T18:01:16.255Z,77.20
2019-03-25T18:03:44.404Z,77.40
2019-03-25T18:06:12.404Z,77.30
2019-03-25T18:08:40.384Z,77.70
2019-03-25T18:11:08.421Z,77.40
2019-03-25T18:13:36.455Z,78.10
2019-03-25T18:16:04.472Z,77.90
2019-03-25T18:18:32.643Z,77.70
2019-03-25T18:21:00.630Z,77.60
2019-03-25T18:23:28.616Z,77.10
2019-03-25T18:25:56.632Z,77.10
2019-03-25T18:28:24.624Z,77.10
2019-03-25T18:30:52.741Z,77.50
2019-03-25T18:33:20.998Z,77.40
2019-03-25T18:35:49.045Z,77.60
2019-03-25T18:38:17.015Z,77.90
2019-03-25T18:40:45.007Z,77.80
2019-03-25T18:43:12.957Z,77.80
2019-03-25T18:45:41.135Z,78.50
2019-03-25T18:48:09.132Z,78.20
2019-03-25T18:50:37.233Z,78.30
2019-03-25T18:53:05.350Z,78.30
2019-03-25T18:55:33.548Z,78.50
2019-03-25T18:58:01.573Z,78.70
2019-03-25T19:00:30.872Z,78.70
2019-03-25T19:02:58.853Z,78.80
2019-03-25T19:05:26.908Z,79.00
2019-03-25T19:07:55.198Z,79.50
2019-03-25T19:10:26.731Z,79.30
2019-03-25T19:12:54.864Z,79.50
2019-03-25T19:15:22.825Z,79.80
2019-03-25T19:17:50.801Z,79.60
2019-03-25T19:20:18.948Z,79.70
2019-03-25T19:22:46.943Z,79.80
2019-03-25T19:25:14.991Z,80.30
2019-03-25T19:27:42.971Z,80.40
2019-03-25T19:30:12.976Z,80.50
2019-03-25T19:32:40.899Z,80.70
2019-03-25T19:35:09.157Z,81.10
2019-03-25T19:37:37.136Z,81.20
2019-03-25T19:40:05.771Z,80.70
2019-03-25T19:42:33.738Z,81.00
2019-03-25T19:45:01.753Z,81.20
2019-03-25T19:47:29.678Z,80.70
2019-03-25T19:49:57.659Z,80.40
2019-03-25T19:52:25.763Z,80.60
2019-03-25T19:54:53.711Z,80.20
2019-03-25T19:57:21.699Z,80.10
2019-03-25T19:59:49.783Z,79.80
2019-03-25T20:02:19.347Z,79.60
2019-03-25T20:04:47.802Z,79.20
2019-03-25T20:07:15.792Z,79.30
2019-03-25T20:09:43.762Z,79.90
2019-03-25T20:12:11.908Z,80.50
2019-03-25T20:14:39.861Z,81.30
2019-03-25T20:17:07.841Z,81.90
2019-03-25T20:19:35.861Z,81.10
2019-03-25T20:22:03.986Z,81.10
2019-03-25T20:24:32.002Z,81.00
2019-03-25T20:27:00.288Z,81.00
2019-03-25T20:29:28.532Z,81.20
2019-03-25T20:31:56.488Z,81.00
2019-03-25T20:34:24.419Z,81.10
2019-03-25T20:36:52.547Z,80.80
2019-03-25T20:39:20.543Z,81.20
2019-03-25T20:41:48.680Z,80.50
2019-03-25T20:44:16.689Z,80.80
2019-03-25T20:46:44.799Z,80.80
2019-03-25T20:49:12.716Z,80.70
2019-03-25T20:51:40.677Z,80.80
2019-03-25T20:54:08.675Z,80.80
2019-03-25T20:56:36.616Z,80.80
2019-03-25T20:59:04.632Z,81.00
2019-03-25T21:01:32.656Z,80.80
2019-03-25T21:04:00.623Z,80.80
2019-03-25T21:06:28.667Z,81.00
2019-03-25T21:08:56.845Z,81.20
2019-03-25T21:11:24.814Z,81.30
2019-03-25T21:13:52.797Z,82.30
2019-03-25T21:16:20.813Z,81.60
2019-03-25T21:18:48.839Z,81.70
2019-03-25T21:21:16.808Z,81.90
2019-03-25T21:23:46.078Z,81.90
2019-03-25T21:26:14.155Z,82.30
2019-03-25T21:28:42.145Z,82.10
2019-03-25T21:31:10.194Z,82.60
2019-03-25T21:33:38.401Z,82.40
2019-03-25T21:36:06.499Z,82.40
2019-03-25T21:38:34.614Z,81.90
2019-03-25T21:41:02.929Z,82.00
2019-03-25T21:43:30.986Z,82.50
2019-03-25T21:45:59.837Z,81.20
2019-03-25T21:48:27.894Z,81.00
2019-03-25T21:50:55.928Z,81.20
2019-03-25T21:53:24.064Z,81.60
2019-03-25T21:55:52.093Z,81.70
2019-03-25T21:58:20.070Z,81.10
2019-03-25T22:00:48.337Z,81.40
2019-03-25T22:03:16.421Z,81.60
2019-03-25T22:05:44.481Z,82.70
2019-03-25T22:08:12.565Z,82.40
2019-03-25T22:10:42.984Z,82.00
2019-03-25T22:13:10.370Z,82.40
2019-03-25T22:15:38.259Z,82.60
2019-03-25T22:18:06.386Z,83.00
2019-03-25T22:20:34.357Z,83.40
2019-03-25T22:23:02.324Z,84.00
2019-03-25T22:25:30.191Z,83.40
2019-03-25T22:27:58.263Z,84.10
2019-03-25T22:30:26.370Z,83.60
2019-03-25T22:32:54.349Z,83.50
2019-03-25T22:35:22.428Z,83.10
2019-03-25T22:37:50.397Z,83.00
2019-03-25T22:40:18.529Z,83.20
2019-03-25T22:42:46.512Z,82.80
2019-03-25T22:45:18.523Z,83.20
2019-03-25T22:47:46.507Z,83.10
2019-03-25T22:50:31.636Z,83.20
2019-03-25T22:52:59.817Z,83.20
2019-03-25T22:55:27.877Z,82.60
2019-03-25T22:57:55.891Z,83.10
2019-03-25T23:00:26.127Z,83.20
2019-03-25T23:02:54.132Z,82.90
2019-03-25T23:05:22.121Z,83.70
2019-03-25T23:07:50.184Z,83.90
2019-03-25T23:10:18.317Z,84.10
2019-03-25T23:12:46.310Z,83.10
2019-03-25T23:15:14.264Z,83.50
2019-03-25T23:17:42.239Z,83.30
2019-03-25T23:20:10.214Z,83.30
2019-03-25T23:22:38.191Z,82.90
2019-03-25T23:25:06.196Z,82.70
2019-03-25T23:27:34.273Z,82.60
2019-03-25T23:30:02.345Z,82.70
2019-03-25T23:32:30.329Z,82.80
2019-03-25T23:34:58.296Z,82.30
2019-03-25T23:37:26.269Z,83.10
2019-03-25T23:39:54.254Z,82.30
2019-03-25T23:42:22.225Z,82.50
2019-03-25T23:44:50.278Z,82.30
2019-03-25T23:47:18.276Z,82.80
2019-03-25T23:49:46.265Z,82.10
2019-03-25T23:52:14.866Z,81.70
2019-03-25T23:54:42.929Z,81.70
2019-03-25T23:57:11.012Z,81.90
2019-03-25T23:59:39.108Z,81.60
